sensor_id;sensor_type;location;lat;lon;timestamp;pressure;altitude;pressure_sealevel;temperature;humidity
26657;BME280;14279;50.010;8.260;2022-08-04T00:00:39;100101.34;;;27.10;42.67
26657;BME280;14279;50.010;8.260;2022-08-04T00:03:27;100105.16;;;27.00;42.70
26657;BME280;14279;50.010;8.260;2022-08-04T00:06:03;100106.25;;;26.91;42.97
26657;BME280;14279;50.010;8.260;2022-08-04T00:08:49;100106.88;;;26.78;44.04
26657;BME280;14279;50.010;8.260;2022-08-04T00:11:20;100103.88;;;26.81;44.01
26657;BME280;14279;50.010;8.260;2022-08-04T00:13:53;100101.00;;;26.68;44.51
26657;BME280;14279;50.010;8.260;2022-08-04T00:16:22;100101.16;;;26.66;44.37
26657;BME280;14279;50.010;8.260;2022-08-04T00:19:03;100104.84;;;26.65;44.30
26657;BME280;14279;50.010;8.260;2022-08-04T00:21:30;100104.09;;;26.56;44.45
26657;BME280;14279;50.010;8.260;2022-08-04T00:24:01;100104.09;;;26.56;44.97
26657;BME280;14279;50.010;8.260;2022-08-04T00:26:26;100099.31;;;26.52;45.07
26657;BME280;14279;50.010;8.260;2022-08-04T00:28:52;100104.66;;;26.52;45.46
26657;BME280;14279;50.010;8.260;2022-08-04T00:31:18;100104.34;;;26.47;45.63
26657;BME280;14279;50.010;8.260;2022-08-04T00:33:45;100095.53;;;26.46;45.93
26657;BME280;14279;50.010;8.260;2022-08-04T00:36:11;100100.59;;;26.41;45.72
26657;BME280;14279;50.010;8.260;2022-08-04T00:38:39;100095.31;;;26.33;46.22
26657;BME280;14279;50.010;8.260;2022-08-04T00:41:08;100100.47;;;26.34;46.70
26657;BME280;14279;50.010;8.260;2022-08-04T00:49:51;100096.16;;;26.10;47.43
26657;BME280;14279;50.010;8.260;2022-08-04T00:57:27;100104.44;;;25.92;47.60
26657;BME280;14279;50.010;8.260;2022-08-04T01:00:06;100100.19;;;25.83;47.66
26657;BME280;14279;50.010;8.260;2022-08-04T01:05:50;100102.84;;;25.59;46.72
26657;BME280;14279;50.010;8.260;2022-08-04T01:08:53;100100.34;;;25.58;46.28
26657;BME280;14279;50.010;8.260;2022-08-04T01:11:51;100098.06;;;25.46;46.99
26657;BME280;14279;50.010;8.260;2022-08-04T01:14:52;100096.41;;;25.45;47.21
26657;BME280;14279;50.010;8.260;2022-08-04T01:20:03;100099.03;;;25.54;47.34
26657;BME280;14279;50.010;8.260;2022-08-04T01:28:27;100097.78;;;25.33;48.90
26657;BME280;14279;50.010;8.260;2022-08-04T01:30:57;100100.47;;;25.33;48.96
26657;BME280;14279;50.010;8.260;2022-08-04T01:33:28;100099.97;;;25.29;49.01
26657;BME280;14279;50.010;8.260;2022-08-04T01:35:55;100097.94;;;25.31;49.14
26657;BME280;14279;50.010;8.260;2022-08-04T01:38:28;100098.72;;;25.40;49.26
26657;BME280;14279;50.010;8.260;2022-08-04T01:40:56;100098.06;;;25.46;49.14
26657;BME280;14279;50.010;8.260;2022-08-04T01:43:26;100095.47;;;25.30;49.50
26657;BME280;14279;50.010;8.260;2022-08-04T01:46:01;100097.69;;;25.18;49.86
26657;BME280;14279;50.010;8.260;2022-08-04T01:48:28;100092.25;;;25.11;50.35
26657;BME280;14279;50.010;8.260;2022-08-04T01:51:12;100090.44;;;25.03;50.44
26657;BME280;14279;50.010;8.260;2022-08-04T01:53:40;100094.91;;;25.03;50.41
26657;BME280;14279;50.010;8.260;2022-08-04T01:56:10;100087.28;;;25.00;50.22
26657;BME280;14279;50.010;8.260;2022-08-04T01:58:37;100088.63;;;24.96;50.42
26657;BME280;14279;50.010;8.260;2022-08-04T02:01:08;100087.41;;;25.06;50.00
26657;BME280;14279;50.010;8.260;2022-08-04T02:03:37;100087.72;;;25.12;49.88
26657;BME280;14279;50.010;8.260;2022-08-04T02:14:30;100089.91;;;25.08;50.22
26657;BME280;14279;50.010;8.260;2022-08-04T02:17:14;100088.47;;;24.89;50.49
26657;BME280;14279;50.010;8.260;2022-08-04T02:19:50;100084.69;;;24.75;50.71
26657;BME280;14279;50.010;8.260;2022-08-04T02:22:21;100089.31;;;24.89;50.47
26657;BME280;14279;50.010;8.260;2022-08-04T02:24:57;100085.28;;;24.94;50.58
26657;BME280;14279;50.010;8.260;2022-08-04T02:27:28;100087.41;;;25.06;49.64
26657;BME280;14279;50.010;8.260;2022-08-04T02:30:03;100089.78;;;25.01;49.99
26657;BME280;14279;50.010;8.260;2022-08-04T02:32:32;100085.94;;;24.96;49.71
26657;BME280;14279;50.010;8.260;2022-08-04T02:35:11;100079.28;;;25.00;49.72
26657;BME280;14279;50.010;8.260;2022-08-04T02:37:44;100077.69;;;24.90;48.50
26657;BME280;14279;50.010;8.260;2022-08-04T02:40:11;100077.63;;;24.99;48.32
26657;BME280;14279;50.010;8.260;2022-08-04T02:42:37;100070.97;;;24.95;48.78
26657;BME280;14279;50.010;8.260;2022-08-04T02:45:04;100072.47;;;24.97;48.41
26657;BME280;14279;50.010;8.260;2022-08-04T02:47:30;100064.72;;;24.79;48.66
26657;BME280;14279;50.010;8.260;2022-08-04T02:49:57;100078.38;;;24.76;49.43
26657;BME280;14279;50.010;8.260;2022-08-04T02:52:23;100068.41;;;24.61;49.98
26657;BME280;14279;50.010;8.260;2022-08-04T02:54:54;100074.22;;;24.73;49.97
26657;BME280;14279;50.010;8.260;2022-08-04T02:57:22;100073.03;;;24.76;49.95
26657;BME280;14279;50.010;8.260;2022-08-04T03:00:04;100074.03;;;24.75;50.02
26657;BME280;14279;50.010;8.260;2022-08-04T03:05:43;100069.91;;;24.72;50.88
26657;BME280;14279;50.010;8.260;2022-08-04T03:08:30;100069.53;;;24.67;50.92
26657;BME280;14279;50.010;8.260;2022-08-04T03:11:13;100066.41;;;24.64;51.04
26657;BME280;14279;50.010;8.260;2022-08-04T03:14:00;100071.75;;;24.47;51.60
26657;BME280;14279;50.010;8.260;2022-08-04T03:19:21;100070.13;;;24.38;52.38
26657;BME280;14279;50.010;8.260;2022-08-04T03:22:39;100072.44;;;24.33;52.59
26657;BME280;14279;50.010;8.260;2022-08-04T03:33:39;100077.75;;;24.33;52.59
26657;BME280;14279;50.010;8.260;2022-08-04T03:36:26;100076.09;;;24.40;52.66
26657;BME280;14279;50.010;8.260;2022-08-04T03:39:36;100072.41;;;24.49;52.47
26657;BME280;14279;50.010;8.260;2022-08-04T03:48:16;100075.22;;;24.64;51.86
26657;BME280;14279;50.010;8.260;2022-08-04T03:51:01;100083.72;;;24.51;52.16
26657;BME280;14279;50.010;8.260;2022-08-04T03:54:19;100081.88;;;24.60;52.08
26657;BME280;14279;50.010;8.260;2022-08-04T04:02:52;100079.53;;;24.57;52.21
26657;BME280;14279;50.010;8.260;2022-08-04T04:05:49;100088.88;;;24.53;51.90
26657;BME280;14279;50.010;8.260;2022-08-04T04:21:57;100081.59;;;24.05;53.18
26657;BME280;14279;50.010;8.260;2022-08-04T04:33:17;100088.72;;;24.29;52.67
26657;BME280;14279;50.010;8.260;2022-08-04T04:36:11;100084.75;;;24.34;52.46
26657;BME280;14279;50.010;8.260;2022-08-04T04:39:11;100088.88;;;24.53;52.07
26657;BME280;14279;50.010;8.260;2022-08-04T04:52:13;100092.22;;;24.38;52.42
26657;BME280;14279;50.010;8.260;2022-08-04T04:54:55;100098.38;;;24.39;52.46
26657;BME280;14279;50.010;8.260;2022-08-04T04:57:28;100103.34;;;24.25;52.67
26657;BME280;14279;50.010;8.260;2022-08-04T05:00:09;100101.03;;;24.14;52.71
26657;BME280;14279;50.010;8.260;2022-08-04T05:13:48;100103.53;;;24.40;50.80
26657;BME280;14279;50.010;8.260;2022-08-04T05:16:20;100098.69;;;24.60;49.59
26657;BME280;14279;50.010;8.260;2022-08-04T05:18:57;100111.97;;;24.60;49.51
26657;BME280;14279;50.010;8.260;2022-08-04T05:21:32;100108.81;;;24.73;49.41
26657;BME280;14279;50.010;8.260;2022-08-04T05:24:03;100111.47;;;24.65;49.31
26657;BME280;14279;50.010;8.260;2022-08-04T05:26:34;100112.97;;;24.76;49.38
26657;BME280;14279;50.010;8.260;2022-08-04T05:29:05;100112.97;;;24.76;49.66
26657;BME280;14279;50.010;8.260;2022-08-04T05:31:33;100110.97;;;24.78;50.00
26657;BME280;14279;50.010;8.260;2022-08-04T05:37:24;100111.09;;;25.01;47.91
26657;BME280;14279;50.010;8.260;2022-08-04T05:40:03;100112.56;;;25.04;48.57
26657;BME280;14279;50.010;8.260;2022-08-04T05:42:36;100112.53;;;25.12;49.07
26657;BME280;14279;50.010;8.260;2022-08-04T05:45:02;100117.66;;;25.22;48.16
26657;BME280;14279;50.010;8.260;2022-08-04T05:47:30;100118.59;;;25.29;47.67
26657;BME280;14279;50.010;8.260;2022-08-04T05:49:56;100118.59;;;25.29;48.12
26657;BME280;14279;50.010;8.260;2022-08-04T05:52:23;100118.44;;;25.31;47.15
26657;BME280;14279;50.010;8.260;2022-08-04T05:54:50;100116.66;;;25.23;48.19
26657;BME280;14279;50.010;8.260;2022-08-04T05:57:15;100119.75;;;25.35;48.34
26657;BME280;14279;50.010;8.260;2022-08-04T05:59:42;100122.72;;;25.40;48.62
26657;BME280;14279;50.010;8.260;2022-08-04T06:02:13;100122.19;;;25.53;48.38
26657;BME280;14279;50.010;8.260;2022-08-04T06:04:40;100126.81;;;25.59;48.04
26657;BME280;14279;50.010;8.260;2022-08-04T06:07:06;100133.16;;;25.58;48.47
26657;BME280;14279;50.010;8.260;2022-08-04T06:09:32;100122.56;;;25.50;48.27
26657;BME280;14279;50.010;8.260;2022-08-04T06:12:00;100125.91;;;25.44;48.38
26657;BME280;14279;50.010;8.260;2022-08-04T06:14:38;100128.69;;;25.50;48.26
26657;BME280;14279;50.010;8.260;2022-08-04T06:17:06;100121.59;;;25.66;47.15
26657;BME280;14279;50.010;8.260;2022-08-04T06:19:34;100120.56;;;25.75;47.13
26657;BME280;14279;50.010;8.260;2022-08-04T06:22:02;100121.44;;;25.91;46.87
26657;BME280;14279;50.010;8.260;2022-08-04T06:24:30;100122.41;;;25.98;46.28
26657;BME280;14279;50.010;8.260;2022-08-04T06:26:57;100128.84;;;26.04;46.34
26657;BME280;14279;50.010;8.260;2022-08-04T06:29:24;100134.94;;;26.21;45.92
26657;BME280;14279;50.010;8.260;2022-08-04T06:32:04;100123.84;;;26.32;45.73
26657;BME280;14279;50.010;8.260;2022-08-04T06:34:39;100130.66;;;26.35;45.99
26657;BME280;14279;50.010;8.260;2022-08-04T06:37:06;100135.28;;;26.18;46.28
26657;BME280;14279;50.010;8.260;2022-08-04T06:39:32;100131.44;;;26.20;46.24
26657;BME280;14279;50.010;8.260;2022-08-04T06:41:58;100125.59;;;26.40;45.65
26657;BME280;14279;50.010;8.260;2022-08-04T06:44:27;100125.44;;;26.56;45.46
26657;BME280;14279;50.010;8.260;2022-08-04T06:46:53;100125.00;;;26.68;45.75
26657;BME280;14279;50.010;8.260;2022-08-04T06:49:19;100129.06;;;26.64;46.86
26657;BME280;14279;50.010;8.260;2022-08-04T06:51:47;100130.63;;;26.58;47.12
26657;BME280;14279;50.010;8.260;2022-08-04T06:54:12;100134.41;;;26.79;46.47
26657;BME280;14279;50.010;8.260;2022-08-04T06:56:38;100124.59;;;26.94;46.15
26657;BME280;14279;50.010;8.260;2022-08-04T06:59:04;100130.38;;;27.13;44.86
26657;BME280;14279;50.010;8.260;2022-08-04T07:01:30;100125.41;;;27.10;44.15
26657;BME280;14279;50.010;8.260;2022-08-04T07:03:57;100124.94;;;27.21;43.29
26657;BME280;14279;50.010;8.260;2022-08-04T07:06:23;100128.06;;;27.25;43.54
26657;BME280;14279;50.010;8.260;2022-08-04T07:08:49;100123.56;;;27.25;43.36
26657;BME280;14279;50.010;8.260;2022-08-04T07:11:16;100122.69;;;27.40;43.59
26657;BME280;14279;50.010;8.260;2022-08-04T07:13:42;100119.66;;;27.58;43.19
26657;BME280;14279;50.010;8.260;2022-08-04T07:16:09;100125.09;;;27.35;43.45
26657;BME280;14279;50.010;8.260;2022-08-04T07:18:37;100126.38;;;27.39;43.52
26657;BME280;14279;50.010;8.260;2022-08-04T07:21:03;100125.19;;;27.56;43.03
26657;BME280;14279;50.010;8.260;2022-08-04T07:23:29;100127.09;;;27.63;42.96
26657;BME280;14279;50.010;8.260;2022-08-04T07:25:56;100122.06;;;27.96;42.55
26657;BME280;14279;50.010;8.260;2022-08-04T07:28:26;100126.03;;;28.00;42.65
26657;BME280;14279;50.010;8.260;2022-08-04T07:30:53;100121.75;;;28.06;42.44
26657;BME280;14279;50.010;8.260;2022-08-04T07:33:20;100124.47;;;28.28;42.11
26657;BME280;14279;50.010;8.260;2022-08-04T07:35:48;100132.72;;;28.33;41.87
26657;BME280;14279;50.010;8.260;2022-08-04T07:38:13;100128.91;;;27.99;42.86
26657;BME280;14279;50.010;8.260;2022-08-04T07:40:39;100125.34;;;27.92;42.25
26657;BME280;14279;50.010;8.260;2022-08-04T07:43:05;100124.88;;;28.10;41.80
26657;BME280;14279;50.010;8.260;2022-08-04T07:45:31;100127.75;;;28.30;41.66
26657;BME280;14279;50.010;8.260;2022-08-04T07:47:57;100126.88;;;28.23;41.65
26657;BME280;14279;50.010;8.260;2022-08-04T07:50:23;100128.97;;;28.27;41.48
26657;BME280;14279;50.010;8.260;2022-08-04T07:52:50;100131.06;;;28.32;41.67
26657;BME280;14279;50.010;8.260;2022-08-04T07:55:15;100123.28;;;28.65;40.99
26657;BME280;14279;50.010;8.260;2022-08-04T07:57:41;100126.50;;;28.83;40.62
26657;BME280;14279;50.010;8.260;2022-08-04T08:00:09;100127.03;;;29.06;39.94
26657;BME280;14279;50.010;8.260;2022-08-04T08:02:35;100124.00;;;29.16;39.79
26657;BME280;14279;50.010;8.260;2022-08-04T08:05:01;100112.88;;;29.19;39.97
26657;BME280;14279;50.010;8.260;2022-08-04T08:07:26;100117.06;;;28.93;40.26
26657;BME280;14279;50.010;8.260;2022-08-04T08:09:52;100123.03;;;28.89;40.21
26657;BME280;14279;50.010;8.260;2022-08-04T08:12:17;100116.78;;;28.75;40.45
26657;BME280;14279;50.010;8.260;2022-08-04T08:14:44;100114.00;;;28.97;40.26
26657;BME280;14279;50.010;8.260;2022-08-04T08:17:09;100118.50;;;29.31;39.37
26657;BME280;14279;50.010;8.260;2022-08-04T08:19:35;100113.09;;;29.18;39.15
26657;BME280;14279;50.010;8.260;2022-08-04T08:22:01;100114.53;;;29.20;38.95
26657;BME280;14279;50.010;8.260;2022-08-04T08:24:31;100105.94;;;29.32;38.90
26657;BME280;14279;50.010;8.260;2022-08-04T08:27:00;100120.13;;;29.25;39.06
26657;BME280;14279;50.010;8.260;2022-08-04T08:29:27;100114.53;;;29.27;38.52
26657;BME280;14279;50.010;8.260;2022-08-04T08:31:53;100109.72;;;29.51;38.13
26657;BME280;14279;50.010;8.260;2022-08-04T08:34:19;100116.16;;;29.63;37.65
26657;BME280;14279;50.010;8.260;2022-08-04T08:36:52;100111.19;;;29.74;36.28
26657;BME280;14279;50.010;8.260;2022-08-04T08:39:25;100115.34;;;29.90;36.14
26657;BME280;14279;50.010;8.260;2022-08-04T08:56:25;100109.84;;;30.05;35.88
26657;BME280;14279;50.010;8.260;2022-08-04T09:01:54;100099.91;;;29.98;36.39
26657;BME280;14279;50.010;8.260;2022-08-04T09:04:46;100111.03;;;29.89;36.42
26657;BME280;14279;50.010;8.260;2022-08-04T09:10:01;100107.13;;;30.11;36.23
26657;BME280;14279;50.010;8.260;2022-08-04T09:12:40;100104.06;;;30.08;35.88
26657;BME280;14279;50.010;8.260;2022-08-04T09:15:34;100104.88;;;30.22;35.66
26657;BME280;14279;50.010;8.260;2022-08-04T09:18:09;100102.41;;;30.20;36.06
26657;BME280;14279;50.010;8.260;2022-08-04T09:20:47;100098.28;;;30.38;35.73
26657;BME280;14279;50.010;8.260;2022-08-04T09:23:24;100105.28;;;30.39;36.54
26657;BME280;14279;50.010;8.260;2022-08-04T09:26:05;100095.13;;;30.54;35.35
26657;BME280;14279;50.010;8.260;2022-08-04T09:29:13;100106.47;;;30.70;35.44
26657;BME280;14279;50.010;8.260;2022-08-04T09:32:05;100096.19;;;30.60;34.99
26657;BME280;14279;50.010;8.260;2022-08-04T09:40:06;100097.94;;;31.00;35.12
26657;BME280;14279;50.010;8.260;2022-08-04T09:45:51;100103.47;;;31.12;34.63
26657;BME280;14279;50.010;8.260;2022-08-04T09:48:47;100095.00;;;31.15;34.28
26657;BME280;14279;50.010;8.260;2022-08-04T09:51:44;100101.50;;;30.94;35.11
26657;BME280;14279;50.010;8.260;2022-08-04T09:54:18;100096.75;;;30.82;35.08
26657;BME280;14279;50.010;8.260;2022-08-04T09:57:16;100093.59;;;31.06;34.87
26657;BME280;14279;50.010;8.260;2022-08-04T09:59:56;100090.91;;;31.06;35.28
26657;BME280;14279;50.010;8.260;2022-08-04T10:02:23;100095.66;;;31.03;35.10
26657;BME280;14279;50.010;8.260;2022-08-04T10:04:52;100090.63;;;31.27;34.83
26657;BME280;14279;50.010;8.260;2022-08-04T10:07:56;100087.47;;;31.37;34.87
26657;BME280;14279;50.010;8.260;2022-08-04T10:10:33;100086.53;;;31.57;34.68
26657;BME280;14279;50.010;8.260;2022-08-04T10:16:43;100078.84;;;31.92;33.76
26657;BME280;14279;50.010;8.260;2022-08-04T10:19:34;100073.84;;;32.21;33.38
26657;BME280;14279;50.010;8.260;2022-08-04T10:22:28;100069.38;;;32.34;32.89
26657;BME280;14279;50.010;8.260;2022-08-04T10:27:56;100064.25;;;32.32;33.47
26657;BME280;14279;50.010;8.260;2022-08-04T10:30:26;100057.66;;;32.65;32.68
26657;BME280;14279;50.010;8.260;2022-08-04T10:32:58;100059.84;;;32.94;32.65
26657;BME280;14279;50.010;8.260;2022-08-04T10:35:28;100062.16;;;33.09;32.14
26657;BME280;14279;50.010;8.260;2022-08-04T10:38:36;100059.13;;;33.17;31.94
26657;BME280;14279;50.010;8.260;2022-08-04T10:55:27;100041.47;;;33.64;31.05
26657;BME280;14279;50.010;8.260;2022-08-04T10:58:41;100042.78;;;33.73;31.12
26657;BME280;14279;50.010;8.260;2022-08-04T11:02:11;100036.22;;;33.81;31.10
26657;BME280;14279;50.010;8.260;2022-08-04T11:08:51;100033.09;;;33.96;29.70
26657;BME280;14279;50.010;8.260;2022-08-04T11:11:48;100028.28;;;33.98;29.65
26657;BME280;14279;50.010;8.260;2022-08-04T11:18:11;100027.69;;;34.08;29.83
26657;BME280;14279;50.010;8.260;2022-08-04T11:20:42;100023.69;;;34.10;30.17
26657;BME280;14279;50.010;8.260;2022-08-04T11:23:15;100020.88;;;34.29;29.50
26657;BME280;14279;50.010;8.260;2022-08-04T11:26:02;100024.84;;;34.14;29.14
26657;BME280;14279;50.010;8.260;2022-08-04T11:28:47;100019.22;;;34.28;28.43
26657;BME280;14279;50.010;8.260;2022-08-04T11:31:53;100013.44;;;34.48;28.53
26657;BME280;14279;50.010;8.260;2022-08-04T11:34:49;100020.91;;;34.70;28.37
26657;BME280;14279;50.010;8.260;2022-08-04T11:37:49;100024.13;;;34.67;27.91
26657;BME280;14279;50.010;8.260;2022-08-04T11:40:46;100018.34;;;34.63;28.06
26657;BME280;14279;50.010;8.260;2022-08-04T11:43:41;100020.94;;;34.58;27.75
26657;BME280;14279;50.010;8.260;2022-08-04T11:46:11;100020.31;;;34.68;27.91
26657;BME280;14279;50.010;8.260;2022-08-04T11:48:47;100019.41;;;34.62;27.74
26657;BME280;14279;50.010;8.260;2022-08-04T11:51:17;100014.53;;;34.76;26.78
26657;BME280;14279;50.010;8.260;2022-08-04T11:53:51;100013.53;;;34.94;27.14
26657;BME280;14279;50.010;8.260;2022-08-04T11:56:16;100014.59;;;34.93;27.29
26657;BME280;14279;50.010;8.260;2022-08-04T11:58:42;100011.78;;;34.88;26.96
26657;BME280;14279;50.010;8.260;2022-08-04T12:01:43;100003.75;;;35.05;27.03
26657;BME280;14279;50.010;8.260;2022-08-04T12:04:37;100013.91;;;35.44;26.60
26657;BME280;14279;50.010;8.260;2022-08-04T12:13:34;99993.81;;;35.40;22.85
26657;BME280;14279;50.010;8.260;2022-08-04T12:16:17;99977.56;;;35.22;23.14
26657;BME280;14279;50.010;8.260;2022-08-04T12:24:36;99994.38;;;35.76;24.65
26657;BME280;14279;50.010;8.260;2022-08-04T12:27:24;99986.25;;;35.93;24.23
26657;BME280;14279;50.010;8.260;2022-08-04T12:29:52;99992.06;;;35.16;22.98
26657;BME280;14279;50.010;8.260;2022-08-04T12:34:58;99980.31;;;35.57;22.29
26657;BME280;14279;50.010;8.260;2022-08-04T12:37:57;99987.50;;;35.85;21.24
26657;BME280;14279;50.010;8.260;2022-08-04T12:40:30;99982.13;;;35.51;21.66
26657;BME280;14279;50.010;8.260;2022-08-04T12:46:02;99974.53;;;36.26;21.34
26657;BME280;14279;50.010;8.260;2022-08-04T12:48:29;99956.72;;;36.31;21.33
26657;BME280;14279;50.010;8.260;2022-08-04T12:50:58;99967.16;;;36.22;21.56
26657;BME280;14279;50.010;8.260;2022-08-04T12:53:39;99969.56;;;36.18;22.18
26657;BME280;14279;50.010;8.260;2022-08-04T12:56:08;99969.31;;;35.98;22.37
26657;BME280;14279;50.010;8.260;2022-08-04T12:58:40;99960.72;;;35.89;21.88
26657;BME280;14279;50.010;8.260;2022-08-04T13:01:09;99962.47;;;35.78;22.05
26657;BME280;14279;50.010;8.260;2022-08-04T13:03:48;99969.81;;;35.60;22.34
26657;BME280;14279;50.010;8.260;2022-08-04T13:07:05;99966.50;;;35.75;22.40
26657;BME280;14279;50.010;8.260;2022-08-04T13:09:35;99958.22;;;35.65;22.29
26657;BME280;14279;50.010;8.260;2022-08-04T13:12:04;99960.63;;;35.61;21.95
26657;BME280;14279;50.010;8.260;2022-08-04T13:14:35;99952.38;;;35.90;21.65
26657;BME280;14279;50.010;8.260;2022-08-04T13:17:02;99953.31;;;36.18;21.32
26657;BME280;14279;50.010;8.260;2022-08-04T13:19:29;99940.25;;;36.37;20.88
26657;BME280;14279;50.010;8.260;2022-08-04T13:21:56;99932.84;;;36.77;20.49
26657;BME280;14279;50.010;8.260;2022-08-04T13:24:25;99932.19;;;37.20;19.62
26657;BME280;14279;50.010;8.260;2022-08-04T13:27:24;99927.66;;;37.36;19.74
26657;BME280;14279;50.010;8.260;2022-08-04T13:31:04;99926.72;;;37.47;19.73
26657;BME280;14279;50.010;8.260;2022-08-04T13:34:17;99919.44;;;36.93;20.24
26657;BME280;14279;50.010;8.260;2022-08-04T13:36:40;99915.91;;;37.20;20.10
26657;BME280;14279;50.010;8.260;2022-08-04T13:39:17;99914.34;;;36.96;20.01
26657;BME280;14279;50.010;8.260;2022-08-04T13:41:52;99903.94;;;36.88;19.98
26657;BME280;14279;50.010;8.260;2022-08-04T13:51:22;99903.28;;;36.48;21.22
26657;BME280;14279;50.010;8.260;2022-08-04T13:56:57;99895.66;;;36.23;21.64
26657;BME280;14279;50.010;8.260;2022-08-04T14:03:01;99887.69;;;35.94;21.19
26657;BME280;14279;50.010;8.260;2022-08-04T14:05:37;99887.69;;;35.94;21.85
26657;BME280;14279;50.010;8.260;2022-08-04T14:08:23;99883.38;;;36.15;21.86
26657;BME280;14279;50.010;8.260;2022-08-04T14:10:56;99884.03;;;36.22;22.07
26657;BME280;14279;50.010;8.260;2022-08-04T14:13:37;99881.94;;;36.07;22.19
26657;BME280;14279;50.010;8.260;2022-08-04T14:48:32;99867.03;;;36.54;21.34
26657;BME280;14279;50.010;8.260;2022-08-04T14:54:28;99867.88;;;37.20;20.51
26657;BME280;14279;50.010;8.260;2022-08-04T15:17:43;99846.03;;;37.42;21.32
26657;BME280;14279;50.010;8.260;2022-08-04T15:20:51;99842.34;;;37.16;21.68
26657;BME280;14279;50.010;8.260;2022-08-04T15:23:41;99835.56;;;36.86;21.47
26657;BME280;14279;50.010;8.260;2022-08-04T15:33:40;99832.97;;;36.64;21.52
26657;BME280;14279;50.010;8.260;2022-08-04T16:10:52;99823.63;;;37.14;23.18
26657;BME280;14279;50.010;8.260;2022-08-04T16:13:20;99810.50;;;37.44;22.31
26657;BME280;14279;50.010;8.260;2022-08-04T16:18:37;99817.16;;;37.74;22.13
26657;BME280;14279;50.010;8.260;2022-08-04T16:21:35;99817.13;;;37.64;22.41
26657;BME280;14279;50.010;8.260;2022-08-04T16:33:38;99799.19;;;38.52;21.91
26657;BME280;14279;50.010;8.260;2022-08-04T16:36:07;99794.00;;;38.61;21.61
26657;BME280;14279;50.010;8.260;2022-08-04T16:38:59;99797.00;;;38.70;21.84
26657;BME280;14279;50.010;8.260;2022-08-04T16:41:41;99794.81;;;38.41;20.83
26657;BME280;14279;50.010;8.260;2022-08-04T16:44:32;99791.50;;;38.28;21.35
26657;BME280;14279;50.010;8.260;2022-08-04T16:47:01;99801.53;;;37.97;21.12
26657;BME280;14279;50.010;8.260;2022-08-04T16:49:27;99795.81;;;37.98;21.18
26657;BME280;14279;50.010;8.260;2022-08-04T16:51:54;99798.50;;;37.93;21.13
26657;BME280;14279;50.010;8.260;2022-08-04T16:54:28;99795.31;;;38.22;21.25
26657;BME280;14279;50.010;8.260;2022-08-04T16:56:54;99796.44;;;38.47;20.70
26657;BME280;14279;50.010;8.260;2022-08-04T16:59:20;99795.38;;;38.58;21.01
26657;BME280;14279;50.010;8.260;2022-08-04T17:01:47;99796.19;;;38.38;21.63
26657;BME280;14279;50.010;8.260;2022-08-04T17:04:13;99799.69;;;38.33;21.07
26657;BME280;14279;50.010;8.260;2022-08-04T17:06:41;99790.91;;;38.00;21.48
26657;BME280;14279;50.010;8.260;2022-08-04T17:09:22;99789.22;;;37.84;21.84
26657;BME280;14279;50.010;8.260;2022-08-04T17:11:48;99792.66;;;37.58;22.20
26657;BME280;14279;50.010;8.260;2022-08-04T17:14:22;99790.66;;;37.38;21.96
26657;BME280;14279;50.010;8.260;2022-08-04T17:17:00;99789.94;;;37.53;22.06
26657;BME280;14279;50.010;8.260;2022-08-04T17:19:27;99790.53;;;37.71;22.18
26657;BME280;14279;50.010;8.260;2022-08-04T17:22:02;99795.13;;;37.70;22.05
26657;BME280;14279;50.010;8.260;2022-08-04T17:24:28;99799.28;;;37.30;22.10
26657;BME280;14279;50.010;8.260;2022-08-04T17:26:54;99808.38;;;37.08;22.81
26657;BME280;14279;50.010;8.260;2022-08-04T17:29:22;99809.03;;;37.26;22.19
26657;BME280;14279;50.010;8.260;2022-08-04T17:38:44;99819.63;;;35.85;23.56
26657;BME280;14279;50.010;8.260;2022-08-04T17:41:17;99824.03;;;35.47;24.06
26657;BME280;14279;50.010;8.260;2022-08-04T17:43:54;99820.72;;;35.45;23.89
26657;BME280;14279;50.010;8.260;2022-08-04T17:46:40;99817.44;;;35.43;24.21
26657;BME280;14279;50.010;8.260;2022-08-04T17:51:57;99822.41;;;35.12;24.45
26657;BME280;14279;50.010;8.260;2022-08-04T17:54:31;99818.56;;;34.90;25.12
26657;BME280;14279;50.010;8.260;2022-08-04T17:57:13;99819.34;;;34.91;25.06
26657;BME280;14279;50.010;8.260;2022-08-04T17:59:42;99824.44;;;35.04;25.02
26657;BME280;14279;50.010;8.260;2022-08-04T18:02:09;99817.53;;;34.80;25.08
26657;BME280;14279;50.010;8.260;2022-08-04T18:04:51;99821.81;;;34.92;25.14
26657;BME280;14279;50.010;8.260;2022-08-04T18:07:44;99811.59;;;34.78;25.13
26657;BME280;14279;50.010;8.260;2022-08-04T18:10:13;99816.22;;;34.65;25.41
26657;BME280;14279;50.010;8.260;2022-08-04T18:12:49;99809.59;;;34.73;25.39
26657;BME280;14279;50.010;8.260;2022-08-04T18:15:40;99822.22;;;34.67;25.90
26657;BME280;14279;50.010;8.260;2022-08-04T18:18:32;99825.31;;;34.59;25.95
26657;BME280;14279;50.010;8.260;2022-08-04T18:21:05;99821.03;;;34.46;25.95
26657;BME280;14279;50.010;8.260;2022-08-04T18:23:48;99823.63;;;34.41;26.10
26657;BME280;14279;50.010;8.260;2022-08-04T18:26:26;99820.19;;;34.16;26.53
26657;BME280;14279;50.010;8.260;2022-08-04T18:29:03;99827.34;;;34.23;26.28
26657;BME280;14279;50.010;8.260;2022-08-04T18:31:29;99834.63;;;34.22;26.37
26657;BME280;14279;50.010;8.260;2022-08-04T18:33:55;99828.84;;;34.30;26.89
26657;BME280;14279;50.010;8.260;2022-08-04T18:36:23;99825.38;;;34.18;26.46
26657;BME280;14279;50.010;8.260;2022-08-04T18:38:49;99827.63;;;34.09;26.23
26657;BME280;14279;50.010;8.260;2022-08-04T18:41:14;99833.16;;;34.02;26.49
26657;BME280;14279;50.010;8.260;2022-08-04T18:43:39;99827.00;;;33.90;26.17
26657;BME280;14279;50.010;8.260;2022-08-04T18:46:04;99831.19;;;33.86;26.08
26657;BME280;14279;50.010;8.260;2022-08-04T18:48:30;99834.63;;;33.81;26.45